Terminal Aerodrome Forecast
Issued by NWS

Home | Current Version | Previous Version | Text Only | Print | Product List | Glossary On
Versions: 1 2 3 4 5 6 7 8 9 10 11 12 13 14 15 16 17 18 19 20 21 22
000
FTUS46 KOTX 221139
TAFMWH
TAF
KMWH 221139Z 2212/2312 00000KT 1/2SM FZFG VV002
     FM221700 27004KT 2SM BR SCT002 OVC005
     FM222000 30005KT P6SM SCT010 BKN120
     FM230600 32007KT 6SM BCFG FEW005=

USA.gov is the U.S. government's official web portal to all federal, state and local government web resources and services.